createdAt,value
2018-06-02T00:00:25.113Z,1011.46
2018-06-02T00:01:25.107Z,1011.45
2018-06-02T00:02:25.086Z,1011.47
2018-06-02T00:04:57.884Z,1011.47
2018-06-02T00:05:57.871Z,1011.47
2018-06-02T00:06:57.856Z,1011.43
2018-06-02T00:07:57.841Z,1011.45
2018-06-02T00:08:57.832Z,1011.42
2018-06-02T00:09:57.817Z,1011.42
2018-06-02T00:10:57.804Z,1011.42
2018-06-02T00:11:57.789Z,1011.39
2018-06-02T00:12:57.809Z,1011.41
2018-06-02T00:13:57.770Z,1011.37
2018-06-02T00:14:57.751Z,1011.43
2018-06-02T00:15:57.737Z,1011.38
2018-06-02T00:16:57.729Z,1011.42
2018-06-02T00:17:57.714Z,1011.45
2018-06-02T00:18:57.703Z,1011.43
2018-06-02T00:19:57.687Z,1011.42
2018-06-02T00:20:57.681Z,1011.47
2018-06-02T00:21:57.683Z,1011.43
2018-06-02T00:22:57.647Z,1011.48
2018-06-02T00:23:57.634Z,1011.44
2018-06-02T00:24:57.623Z,1011.42
2018-06-02T00:25:57.610Z,1011.45
2018-06-02T00:26:57.600Z,1011.44
2018-06-02T00:27:57.586Z,1011.47
2018-06-02T00:28:57.575Z,1011.46
2018-06-02T00:29:57.558Z,1011.46
2018-06-02T00:30:57.646Z,1011.48
2018-06-02T00:31:57.547Z,1011.47
2018-06-02T00:32:57.532Z,1011.46
2018-06-02T00:33:57.515Z,1011.48
2018-06-02T00:34:57.492Z,1011.46
2018-06-02T00:35:57.478Z,1011.45
2018-06-02T00:36:57.475Z,1011.48
2018-06-02T00:37:57.453Z,1011.47
2018-06-02T00:38:57.443Z,1011.49
2018-06-02T00:39:57.426Z,1011.47
2018-06-02T00:40:57.429Z,1011.52
2018-06-02T00:41:57.411Z,1011.48
2018-06-02T00:42:57.390Z,1011.52
2018-06-02T00:43:57.376Z,1011.46
2018-06-02T00:44:57.371Z,1011.42
2018-06-02T00:45:57.352Z,1011.40
2018-06-02T00:46:57.345Z,1011.42
2018-06-02T00:47:57.322Z,1011.38
2018-06-02T00:48:57.309Z,1011.43
2018-06-02T00:49:57.299Z,1011.44
2018-06-02T00:50:57.291Z,1011.42
2018-06-02T00:51:57.281Z,1011.41
2018-06-02T00:52:57.258Z,1011.42
2018-06-02T00:53:57.264Z,1011.44
2018-06-02T00:54:57.291Z,1011.43
2018-06-02T00:55:57.224Z,1011.41
2018-06-02T00:56:57.208Z,1011.42
2018-06-02T00:57:57.193Z,1011.38
2018-06-02T00:58:57.190Z,1011.39
2018-06-02T00:59:57.168Z,1011.33
2018-06-02T01:00:57.156Z,1011.33
2018-06-02T01:01:57.143Z,1011.34
2018-06-02T01:02:57.129Z,1011.31
2018-06-02T01:03:57.132Z,1011.27
2018-06-02T01:04:57.104Z,1011.25
2018-06-02T01:05:57.096Z,1011.29
2018-06-02T01:06:57.084Z,1011.28
2018-06-02T01:08:57.051Z,1011.29
2018-06-02T01:09:58.050Z,1011.29
2018-06-02T01:10:57.033Z,1011.33
2018-06-02T01:11:57.013Z,1011.28
2018-06-02T01:12:57.000Z,1011.28
2018-06-02T01:13:56.985Z,1011.30
2018-06-02T01:14:56.973Z,1011.28
2018-06-02T01:15:56.959Z,1011.30
2018-06-02T01:16:56.947Z,1011.32
2018-06-02T01:17:56.933Z,1011.31
2018-06-02T01:18:56.921Z,1011.32
2018-06-02T01:19:56.910Z,1011.31
2018-06-02T01:20:56.986Z,1011.32
2018-06-02T01:21:57.690Z,1011.32
2018-06-02T01:22:57.277Z,1011.32
2018-06-02T01:23:56.863Z,1011.32
2018-06-02T01:24:56.854Z,1011.32
2018-06-02T01:25:56.829Z,1011.28
2018-06-02T01:27:00.245Z,1011.30
2018-06-02T01:27:56.801Z,1011.28
2018-06-02T01:29:56.876Z,1011.25
2018-06-02T01:31:41.138Z,1011.23
2018-06-02T01:32:41.128Z,1011.28
2018-06-02T01:33:41.108Z,1011.26
2018-06-02T01:34:41.097Z,1011.23
2018-06-02T01:36:14.292Z,1011.25
2018-06-02T01:36:41.069Z,1011.24
2018-06-02T01:37:41.057Z,1011.27
2018-06-02T01:38:41.051Z,1011.30
2018-06-02T01:39:41.028Z,1011.32
2018-06-02T01:40:41.025Z,1011.33
2018-06-02T01:41:41.002Z,1011.32
2018-06-02T01:42:40.989Z,1011.34
2018-06-02T01:43:40.974Z,1011.37
2018-06-02T01:44:40.968Z,1011.33
2018-06-02T01:46:14.174Z,1011.34
2018-06-02T01:46:40.936Z,1011.35
2018-06-02T01:47:40.939Z,1011.34
2018-06-02T01:48:40.911Z,1011.37
2018-06-02T01:49:40.900Z,1011.33
2018-06-02T01:50:40.881Z,1011.31
2018-06-02T01:51:40.867Z,1011.36
2018-06-02T01:52:40.863Z,1011.35
2018-06-02T01:53:40.841Z,1011.39
2018-06-02T01:54:40.826Z,1011.34
2018-06-02T01:55:40.822Z,1011.32
2018-06-02T01:56:40.801Z,1011.35
2018-06-02T01:57:40.786Z,1011.34
2018-06-02T01:58:40.776Z,1011.34
2018-06-02T01:59:40.759Z,1011.38
2018-06-02T02:00:40.758Z,1011.35
2018-06-02T02:01:40.734Z,1011.36
2018-06-02T02:02:40.729Z,1011.32
2018-06-02T02:03:40.708Z,1011.35
2018-06-02T02:05:40.679Z,1011.29
2018-06-02T02:06:40.668Z,1011.29
2018-06-02T02:07:40.653Z,1011.27
2018-06-02T02:08:40.641Z,1011.26
2018-06-02T02:09:40.643Z,1011.28
2018-06-02T02:10:40.614Z,1011.26
2018-06-02T02:11:40.601Z,1011.23
2018-06-02T02:12:40.597Z,1011.24
2018-06-02T02:14:13.784Z,1011.26
2018-06-02T02:14:40.619Z,1011.23
2018-06-02T02:15:40.547Z,1011.22
2018-06-02T02:16:40.531Z,1011.23
2018-06-02T02:17:40.519Z,1011.23
2018-06-02T02:18:40.508Z,1011.24
2018-06-02T02:19:40.501Z,1011.28
2018-06-02T02:20:40.480Z,1011.23
2018-06-02T02:21:40.466Z,1011.26
2018-06-02T02:22:40.476Z,1011.27
2018-06-02T02:23:40.442Z,1011.27
2018-06-02T02:24:40.426Z,1011.28
2018-06-02T02:25:40.413Z,1011.25
2018-06-02T02:26:40.402Z,1011.26
2018-06-02T02:27:40.395Z,1011.25
2018-06-02T02:28:40.374Z,1011.24
2018-06-02T02:29:40.366Z,1011.26
2018-06-02T02:31:40.332Z,1011.27
2018-06-02T02:32:40.319Z,1011.26
2018-06-02T02:33:40.305Z,1011.26
2018-06-02T02:34:40.291Z,1011.25
2018-06-02T02:35:40.282Z,1011.25
2018-06-02T02:36:40.265Z,1011.26
2018-06-02T02:37:40.252Z,1011.25
2018-06-02T02:38:40.248Z,1011.28
2018-06-02T02:39:40.226Z,1011.30
2018-06-02T02:40:40.215Z,1011.24
2018-06-02T02:42:13.411Z,1011.27
2018-06-02T02:42:40.183Z,1011.27
2018-06-02T02:44:13.381Z,1011.24
2018-06-02T02:44:40.164Z,1011.27
2018-06-02T02:45:40.143Z,1011.26
2018-06-02T02:46:40.132Z,1011.28
2018-06-02T02:47:40.121Z,1011.31
2018-06-02T02:48:40.110Z,1011.32
2018-06-02T02:49:40.090Z,1011.31
2018-06-02T02:50:40.079Z,1011.31
2018-06-02T02:52:40.054Z,1011.30
2018-06-02T02:53:40.039Z,1011.31
2018-06-02T02:54:40.023Z,1011.37
2018-06-02T02:55:40.011Z,1011.36
2018-06-02T02:56:39.998Z,1011.36
2018-06-02T02:57:39.983Z,1011.35
2018-06-02T02:58:39.971Z,1011.38
2018-06-02T02:59:39.957Z,1011.37
2018-06-02T03:00:39.943Z,1011.39
2018-06-02T03:01:39.933Z,1011.37
2018-06-02T03:02:39.915Z,1011.37
2018-06-02T03:03:40.003Z,1011.39
2018-06-02T03:04:39.890Z,1011.39
2018-06-02T03:05:39.876Z,1011.37
2018-06-02T03:06:39.864Z,1011.39
2018-06-02T03:07:39.851Z,1011.41
2018-06-02T03:08:39.844Z,1011.42
2018-06-02T03:09:39.821Z,1011.44
2018-06-02T03:10:39.808Z,1011.39
2018-06-02T03:11:39.794Z,1011.43
2018-06-02T03:12:39.781Z,1011.44
2018-06-02T03:13:39.770Z,1011.48
2018-06-02T03:14:39.754Z,1011.43
2018-06-02T03:15:39.741Z,1011.48
2018-06-02T03:16:39.728Z,1011.50
2018-06-02T03:17:39.714Z,1011.47
2018-06-02T03:18:39.700Z,1011.47
2018-06-02T03:19:39.686Z,1011.49
2018-06-02T03:20:39.675Z,1011.47
2018-06-02T03:21:39.662Z,1011.46
2018-06-02T03:22:39.646Z,1011.44
2018-06-02T03:23:39.633Z,1011.48
2018-06-02T03:24:39.621Z,1011.45
2018-06-02T03:25:39.608Z,1011.48
2018-06-02T03:26:39.593Z,1011.45
2018-06-02T03:27:39.580Z,1011.41
2018-06-02T03:28:39.567Z,1011.47
2018-06-02T03:29:39.553Z,1011.45
2018-06-02T03:30:39.539Z,1011.44
2018-06-02T03:31:39.526Z,1011.45
2018-06-02T03:32:39.511Z,1011.47
2018-06-02T03:33:39.498Z,1011.46
2018-06-02T03:34:39.484Z,1011.50
2018-06-02T03:35:39.473Z,1011.50
2018-06-02T03:36:39.457Z,1011.53
2018-06-02T03:37:39.444Z,1011.49
2018-06-02T03:38:39.440Z,1011.48
2018-06-02T03:39:39.417Z,1011.49
2018-06-02T03:40:39.404Z,1011.53
2018-06-02T03:41:39.390Z,1011.54
2018-06-02T03:42:39.378Z,1011.51
2018-06-02T03:43:39.371Z,1011.50
2018-06-02T03:44:39.348Z,1011.52
2018-06-02T03:45:39.335Z,1011.51
2018-06-02T03:46:39.323Z,1011.51
2018-06-02T03:47:39.323Z,1011.52
2018-06-02T03:48:39.296Z,1011.53
2018-06-02T03:50:28.715Z,1011.53
2018-06-02T03:51:28.702Z,1011.54
2018-06-02T03:52:28.687Z,1011.51
2018-06-02T03:54:16.633Z,1011.56
2018-06-02T03:55:12.782Z,1011.56
2018-06-02T03:57:26.794Z,1011.56
2018-06-02T03:58:26.780Z,1011.60
2018-06-02T03:59:26.766Z,1011.60
2018-06-02T04:00:26.752Z,1011.60
2018-06-02T04:01:26.739Z,1011.58
2018-06-02T04:03:26.026Z,1011.57
2018-06-02T04:04:26.021Z,1011.61
2018-06-02T04:05:25.996Z,1011.62
2018-06-02T04:06:25.981Z,1011.60
2018-06-02T04:07:25.968Z,1011.62
2018-06-02T04:08:25.955Z,1011.59
2018-06-02T04:09:25.941Z,1011.63
2018-06-02T04:10:25.928Z,1011.63
2018-06-02T04:11:25.923Z,1011.63
2018-06-02T04:12:25.901Z,1011.62
2018-06-02T04:13:25.888Z,1011.65
2018-06-02T04:14:25.872Z,1011.66
2018-06-02T04:15:25.860Z,1011.65
2018-06-02T04:16:25.848Z,1011.70
2018-06-02T04:17:25.836Z,1011.67
2018-06-02T04:18:25.825Z,1011.69
2018-06-02T04:19:25.809Z,1011.74
2018-06-02T04:20:25.793Z,1011.73
2018-06-02T04:21:25.779Z,1011.70
2018-06-02T04:22:25.766Z,1011.70
2018-06-02T04:23:25.752Z,1011.73
2018-06-02T04:24:25.738Z,1011.73
2018-06-02T04:25:25.726Z,1011.73
2018-06-02T04:26:25.712Z,1011.79
2018-06-02T04:27:25.699Z,1011.79
2018-06-02T04:28:25.684Z,1011.76
2018-06-02T04:29:25.671Z,1011.77
2018-06-02T04:30:25.658Z,1011.77
2018-06-02T04:31:25.647Z,1011.80
2018-06-02T04:32:25.629Z,1011.77
2018-06-02T04:33:25.615Z,1011.75
2018-06-02T04:34:25.603Z,1011.78
2018-06-02T04:35:25.594Z,1011.82
2018-06-02T04:36:25.585Z,1011.79
2018-06-02T04:37:25.563Z,1011.80
2018-06-02T04:38:25.550Z,1011.78
2018-06-02T04:39:25.540Z,1011.81
2018-06-02T04:40:25.523Z,1011.77
2018-06-02T04:41:25.510Z,1011.79
2018-06-02T04:42:25.495Z,1011.74
2018-06-02T04:43:25.499Z,1011.73
2018-06-02T04:44:25.470Z,1011.72
2018-06-02T04:45:25.454Z,1011.71
2018-06-02T04:46:25.442Z,1011.75
2018-06-02T04:47:25.427Z,1011.77
2018-06-02T04:48:25.416Z,1011.74
2018-06-02T04:49:25.468Z,1011.76
2018-06-02T04:50:25.390Z,1011.79
2018-06-02T04:51:25.375Z,1011.80
2018-06-02T04:52:25.361Z,1011.76
2018-06-02T04:53:25.355Z,1011.83
2018-06-02T04:54:25.405Z,1011.85
2018-06-02T04:55:25.322Z,1011.86
2018-06-02T04:56:25.307Z,1011.85
2018-06-02T04:57:25.296Z,1011.88
2018-06-02T04:58:25.280Z,1011.88
2018-06-02T04:59:25.268Z,1011.90
2018-06-02T05:00:25.254Z,1011.90
2018-06-02T05:01:25.262Z,1011.94
2018-06-02T05:02:25.227Z,1011.95
2018-06-02T05:03:25.214Z,1011.92
2018-06-02T05:04:25.258Z,1011.92
2018-06-02T05:05:25.186Z,1011.90
2018-06-02T05:06:25.179Z,1011.90
2018-06-02T05:07:25.169Z,1011.92
2018-06-02T05:08:25.147Z,1011.92
2018-06-02T05:09:25.133Z,1011.92
2018-06-02T05:10:25.120Z,1011.89
2018-06-02T05:11:25.107Z,1011.93
2018-06-02T05:12:25.103Z,1011.90
2018-06-02T05:13:25.082Z,1011.90
2018-06-02T05:14:25.090Z,1011.92
2018-06-02T05:15:25.053Z,1011.93
2018-06-02T05:16:25.040Z,1011.96
2018-06-02T05:17:25.026Z,1011.94
2018-06-02T05:18:25.014Z,1011.98
2018-06-02T05:19:25.001Z,1011.97
2018-06-02T05:20:24.988Z,1011.98
2018-06-02T05:21:24.974Z,1012.01
2018-06-02T05:22:24.959Z,1012.02
2018-06-02T05:23:24.950Z,1012.04
2018-06-02T05:24:24.977Z,1012.00
2018-06-02T05:25:24.921Z,1012.10
2018-06-02T05:26:24.913Z,1012.08
2018-06-02T05:27:24.892Z,1012.08
2018-06-02T05:28:24.883Z,1012.09
2018-06-02T05:29:24.870Z,1012.08
2018-06-02T05:30:24.862Z,1012.14
2018-06-02T05:32:24.830Z,1012.15
2018-06-02T05:33:24.815Z,1012.15
2018-06-02T05:34:24.799Z,1012.18
2018-06-02T05:35:24.825Z,1012.16
2018-06-02T05:36:24.774Z,1012.16
2018-06-02T05:37:24.761Z,1012.14
2018-06-02T05:38:24.747Z,1012.16
2018-06-02T05:39:24.740Z,1012.15
2018-06-02T05:40:24.723Z,1012.17
2018-06-02T05:41:24.708Z,1012.18
2018-06-02T05:42:24.705Z,1012.16
2018-06-02T05:43:24.681Z,1012.16
2018-06-02T05:44:24.683Z,1012.16
2018-06-02T05:45:24.654Z,1012.18
2018-06-02T05:46:24.641Z,1012.19
2018-06-02T05:47:24.627Z,1012.19
2018-06-02T05:48:24.614Z,1012.20
2018-06-02T05:49:24.600Z,1012.17
2018-06-02T05:50:24.587Z,1012.19
2018-06-02T05:52:24.560Z,1012.19
2018-06-02T05:53:24.552Z,1012.18
2018-06-02T05:54:24.537Z,1012.20
2018-06-02T05:55:24.521Z,1012.20
2018-06-02T05:56:24.508Z,1012.15
2018-06-02T05:57:24.493Z,1012.20
2018-06-02T05:58:24.481Z,1012.18
2018-06-02T05:59:24.477Z,1012.19
2018-06-02T06:00:24.458Z,1012.20
2018-06-02T06:01:24.441Z,1012.18
2018-06-02T06:02:24.434Z,1012.18
2018-06-02T06:03:24.415Z,1012.22
2018-06-02T06:04:24.401Z,1012.22
2018-06-02T06:05:24.386Z,1012.19
2018-06-02T06:06:24.375Z,1012.19
2018-06-02T06:07:24.363Z,1012.16
2018-06-02T06:08:24.348Z,1012.20
2018-06-02T06:09:24.335Z,1012.19
2018-06-02T06:10:24.321Z,1012.18
2018-06-02T06:11:24.307Z,1012.19
2018-06-02T06:12:24.293Z,1012.21
2018-06-02T06:13:24.289Z,1012.18
2018-06-02T06:14:24.273Z,1012.18
2018-06-02T06:15:24.260Z,1012.18
2018-06-02T06:16:24.242Z,1012.22
2018-06-02T06:17:24.230Z,1012.19
2018-06-02T06:18:24.234Z,1012.21
2018-06-02T06:19:24.203Z,1012.15
2018-06-02T06:20:24.190Z,1012.16
2018-06-02T06:21:24.182Z,1012.16
2018-06-02T06:22:24.171Z,1012.20
2018-06-02T06:23:24.156Z,1012.16
2018-06-02T06:24:24.141Z,1012.14
2018-06-02T06:25:24.122Z,1012.15
2018-06-02T06:26:24.107Z,1012.19
2018-06-02T06:27:24.094Z,1012.15
2018-06-02T06:28:24.087Z,1012.17
2018-06-02T06:29:24.068Z,1012.21
2018-06-02T06:30:24.057Z,1012.23
2018-06-02T06:31:24.042Z,1012.21
2018-06-02T06:32:24.037Z,1012.17
2018-06-02T06:33:24.019Z,1012.18
2018-06-02T06:34:24.003Z,1012.19
2018-06-02T06:35:23.988Z,1012.20
2018-06-02T06:36:23.977Z,1012.18
2018-06-02T06:37:23.971Z,1012.21
2018-06-02T06:38:24.000Z,1012.20
2018-06-02T06:39:23.936Z,1012.19
2018-06-02T06:40:23.925Z,1012.26
2018-06-02T06:41:23.910Z,1012.24
2018-06-02T06:42:23.896Z,1012.25
2018-06-02T06:43:23.884Z,1012.26
2018-06-02T06:44:23.875Z,1012.22
2018-06-02T06:45:23.865Z,1012.24
2018-06-02T06:46:23.847Z,1012.28
2018-06-02T06:47:23.839Z,1012.31
2018-06-02T06:48:23.821Z,1012.29
2018-06-02T06:49:23.809Z,1012.31
2018-06-02T06:50:23.792Z,1012.32
2018-06-02T06:51:23.777Z,1012.29
2018-06-02T06:52:23.765Z,1012.33
2018-06-02T06:53:23.764Z,1012.31
2018-06-02T06:54:23.748Z,1012.32
2018-06-02T06:55:23.726Z,1012.30
2018-06-02T06:56:23.713Z,1012.31
2018-06-02T06:57:23.698Z,1012.32
2018-06-02T06:58:23.694Z,1012.34
2018-06-02T06:59:23.680Z,1012.34
2018-06-02T07:00:23.659Z,1012.34
2018-06-02T07:01:23.654Z,1012.36
2018-06-02T07:02:23.640Z,1012.39
2018-06-02T07:03:23.619Z,1012.36
2018-06-02T07:04:23.606Z,1012.34
2018-06-02T07:05:23.594Z,1012.40
2018-06-02T07:06:23.586Z,1012.36
2018-06-02T07:07:23.566Z,1012.38
2018-06-02T07:08:23.563Z,1012.40
2018-06-02T07:09:23.538Z,1012.34
2018-06-02T07:10:23.527Z,1012.36
2018-06-02T07:11:23.515Z,1012.39
2018-06-02T07:12:23.517Z,1012.42
2018-06-02T07:13:23.486Z,1012.37
2018-06-02T07:14:23.479Z,1012.40
2018-06-02T07:15:23.461Z,1012.41
2018-06-02T07:16:23.449Z,1012.44
2018-06-02T07:17:23.434Z,1012.44
2018-06-02T07:18:23.429Z,1012.42
2018-06-02T07:19:23.405Z,1012.45
2018-06-02T07:20:23.394Z,1012.45
2018-06-02T07:21:23.380Z,1012.43
2018-06-02T07:22:23.367Z,1012.44
2018-06-02T07:23:23.358Z,1012.50
2018-06-02T07:24:23.342Z,1012.50
2018-06-02T07:25:23.328Z,1012.52
2018-06-02T07:26:23.313Z,1012.51
2018-06-02T07:27:23.309Z,1012.54
2018-06-02T07:28:23.302Z,1012.52
2018-06-02T07:29:23.279Z,1012.54
2018-06-02T07:30:23.263Z,1012.50
2018-06-02T07:31:23.249Z,1012.56
2018-06-02T07:32:23.235Z,1012.53
2018-06-02T07:33:23.222Z,1012.56
2018-06-02T07:34:23.210Z,1012.51
2018-06-02T07:35:23.201Z,1012.55
2018-06-02T07:36:23.184Z,1012.56
2018-06-02T07:37:23.169Z,1012.53
2018-06-02T07:38:23.156Z,1012.56
2018-06-02T07:39:23.152Z,1012.52
2018-06-02T07:40:23.132Z,1012.56
2018-06-02T07:41:23.116Z,1012.54
2018-06-02T07:42:23.106Z,1012.55
2018-06-02T07:43:23.094Z,1012.51
2018-06-02T07:44:23.161Z,1012.54
2018-06-02T07:45:23.075Z,1012.56
2018-06-02T07:46:23.052Z,1012.58
2018-06-02T07:47:23.041Z,1012.54
2018-06-02T07:48:23.036Z,1012.54
2018-06-02T07:49:23.013Z,1012.57
2018-06-02T07:50:23.002Z,1012.55
2018-06-02T07:51:22.996Z,1012.57
2018-06-02T07:52:22.974Z,1012.54
2018-06-02T07:53:22.960Z,1012.51
2018-06-02T07:54:22.949Z,1012.52
2018-06-02T07:55:22.937Z,1012.54
2018-06-02T07:56:22.924Z,1012.53
2018-06-02T07:57:22.909Z,1012.53
2018-06-02T07:58:22.897Z,1012.53
2018-06-02T07:59:22.887Z,1012.57
2018-06-02T08:00:22.873Z,1012.53
2018-06-02T08:01:22.865Z,1012.54
2018-06-02T08:02:22.846Z,1012.53
2018-06-02T08:03:22.833Z,1012.49
2018-06-02T08:04:22.820Z,1012.53
2018-06-02T08:05:22.810Z,1012.51
2018-06-02T08:06:22.799Z,1012.51
2018-06-02T08:07:22.782Z,1012.48
2018-06-02T08:08:22.839Z,1012.50
2018-06-02T08:09:22.763Z,1012.43
2018-06-02T08:10:22.745Z,1012.47
2018-06-02T08:11:22.739Z,1012.49
2018-06-02T08:12:22.719Z,1012.44
2018-06-02T08:13:22.705Z,1012.47
2018-06-02T08:14:22.704Z,1012.46
2018-06-02T08:15:22.682Z,1012.47
2018-06-02T08:16:22.668Z,1012.44
2018-06-02T08:17:22.664Z,1012.48
2018-06-02T08:18:22.660Z,1012.49
2018-06-02T08:19:22.634Z,1012.47
2018-06-02T08:20:22.623Z,1012.46
2018-06-02T08:21:22.613Z,1012.46
2018-06-02T08:22:22.594Z,1012.46
2018-06-02T08:23:22.583Z,1012.52
2018-06-02T08:24:22.571Z,1012.48
2018-06-02T08:25:22.566Z,1012.45
2018-06-02T08:26:22.544Z,1012.41
2018-06-02T08:27:22.534Z,1012.47
2018-06-02T08:28:22.523Z,1012.47
2018-06-02T08:29:22.509Z,1012.46
2018-06-02T08:30:22.502Z,1012.46
2018-06-02T08:31:22.483Z,1012.48
2018-06-02T08:32:22.471Z,1012.46
2018-06-02T08:33:22.519Z,1012.48
2018-06-02T08:34:22.450Z,1012.49
2018-06-02T08:35:22.432Z,1012.50
2018-06-02T08:36:22.429Z,1012.54
2018-06-02T08:37:22.411Z,1012.54
2018-06-02T08:38:22.396Z,1012.58
2018-06-02T08:39:22.385Z,1012.54
2018-06-02T08:40:22.368Z,1012.58
2018-06-02T08:41:22.358Z,1012.58
2018-06-02T08:42:22.354Z,1012.61
2018-06-02T08:43:22.337Z,1012.61
2018-06-02T08:44:22.323Z,1012.61
2018-06-02T08:45:22.309Z,1012.64
2018-06-02T08:46:22.347Z,1012.68
2018-06-02T08:47:22.281Z,1012.65
2018-06-02T08:48:22.269Z,1012.67
2018-06-02T08:49:22.256Z,1012.68
2018-06-02T08:50:22.247Z,1012.65
2018-06-02T08:51:22.231Z,1012.67
2018-06-02T08:52:22.219Z,1012.69
2018-06-02T08:53:22.206Z,1012.67
2018-06-02T08:54:22.255Z,1012.71
2018-06-02T08:55:22.189Z,1012.71
2018-06-02T08:56:22.188Z,1012.70
2018-06-02T08:58:22.178Z,1012.71
2018-06-02T08:59:22.143Z,1012.73
2018-06-02T09:00:22.144Z,1012.69
2018-06-02T09:01:22.112Z,1012.76
2018-06-02T09:02:25.737Z,1012.73
2018-06-02T09:03:22.088Z,1012.76
2018-06-02T09:04:22.081Z,1012.76
2018-06-02T09:05:22.080Z,1012.79
2018-06-02T09:06:22.048Z,1012.79
2018-06-02T09:07:22.036Z,1012.83
2018-06-02T09:08:22.032Z,1012.82
2018-06-02T09:09:22.013Z,1012.86
2018-06-02T09:10:22.004Z,1012.83
2018-06-02T09:11:21.992Z,1012.84
2018-06-02T09:12:22.987Z,1012.85
2018-06-02T09:13:21.964Z,1012.83
2018-06-02T09:14:21.982Z,1012.83
2018-06-02T09:15:21.941Z,1012.85
2018-06-02T09:16:21.933Z,1012.86
2018-06-02T09:17:21.916Z,1012.80
2018-06-02T09:19:21.907Z,1012.82
2018-06-02T09:20:21.887Z,1012.78
2018-06-02T09:21:21.872Z,1012.80
2018-06-02T09:22:21.856Z,1012.79
2018-06-02T09:23:21.852Z,1012.79
2018-06-02T09:24:21.851Z,1012.80
2018-06-02T09:25:21.822Z,1012.83
2018-06-02T09:26:21.810Z,1012.85
2018-06-02T09:27:21.849Z,1012.81
2018-06-02T09:28:21.787Z,1012.83
2018-06-02T09:29:21.774Z,1012.83
2018-06-02T09:30:21.763Z,1012.82
2018-06-02T09:31:21.751Z,1012.82
2018-06-02T09:32:21.740Z,1012.81
2018-06-02T09:33:21.731Z,1012.88
2018-06-02T09:34:21.790Z,1012.89
2018-06-02T09:35:21.754Z,1012.92
2018-06-02T09:36:21.694Z,1012.91
2018-06-02T09:37:21.681Z,1012.96
2018-06-02T09:38:21.673Z,1012.90
2018-06-02T09:39:21.658Z,1012.98
2018-06-02T09:40:21.652Z,1012.97
2018-06-02T09:41:21.635Z,1012.96
2018-06-02T09:42:21.625Z,1012.99
2018-06-02T09:43:21.719Z,1012.96
2018-06-02T09:44:21.601Z,1012.95
2018-06-02T09:45:21.589Z,1013.00
2018-06-02T09:46:21.579Z,1013.00
2018-06-02T09:47:21.576Z,1012.95
2018-06-02T09:48:21.558Z,1012.93
2018-06-02T09:49:21.554Z,1013.01
2018-06-02T09:50:21.542Z,1013.00
2018-06-02T09:51:21.530Z,1013.03
2018-06-02T09:52:21.521Z,1013.04
2018-06-02T09:53:21.501Z,1013.04
2018-06-02T09:54:21.491Z,1013.04
2018-06-02T09:55:21.479Z,1013.02
2018-06-02T09:56:21.472Z,1013.05
2018-06-02T09:57:21.466Z,1013.05
2018-06-02T09:58:21.458Z,1013.00
2018-06-02T09:59:21.439Z,1013.00
2018-06-02T10:00:21.427Z,1012.99
2018-06-02T10:01:21.426Z,1013.03
2018-06-02T10:02:21.412Z,1013.02
2018-06-02T10:03:21.397Z,1013.05
2018-06-02T10:04:21.387Z,1013.04
2018-06-02T10:05:21.380Z,1013.07
2018-06-02T10:06:21.373Z,1013.05
2018-06-02T10:07:21.359Z,1013.03
2018-06-02T10:08:21.345Z,1013.08
2018-06-02T10:09:21.330Z,1013.05
2018-06-02T10:10:21.320Z,1013.03
2018-06-02T10:11:21.308Z,1013.02
2018-06-02T10:12:21.298Z,1013.08
2018-06-02T10:13:21.302Z,1013.07
2018-06-02T10:14:21.275Z,1013.07
2018-06-02T10:15:21.283Z,1013.07
2018-06-02T10:16:21.267Z,1013.08
2018-06-02T10:17:21.251Z,1013.10
2018-06-02T10:18:21.238Z,1013.03
2018-06-02T10:19:21.233Z,1013.03
2018-06-02T10:20:21.221Z,1013.03
2018-06-02T10:21:21.201Z,1013.09
2018-06-02T10:22:21.204Z,1013.08
2018-06-02T10:23:21.182Z,1013.09
2018-06-02T10:24:21.177Z,1013.10
2018-06-02T10:25:21.174Z,1013.09
2018-06-02T10:26:21.150Z,1013.12
2018-06-02T10:27:21.152Z,1013.11
2018-06-02T10:28:21.130Z,1013.11
2018-06-02T10:29:21.120Z,1013.15
2018-06-02T10:30:21.109Z,1013.19
2018-06-02T10:31:21.100Z,1013.14
2018-06-02T10:32:21.099Z,1013.20
2018-06-02T10:33:21.086Z,1013.18
2018-06-02T10:34:21.082Z,1013.09
2018-06-02T10:35:21.067Z,1013.11
2018-06-02T10:36:21.048Z,1013.14
2018-06-02T10:37:21.040Z,1013.13
2018-06-02T10:38:21.033Z,1013.06
2018-06-02T10:39:21.018Z,1013.08
2018-06-02T10:40:21.038Z,1013.04
2018-06-02T10:41:21.006Z,1013.02
2018-06-02T10:42:20.988Z,1013.01
2018-06-02T10:43:20.980Z,1013.08
2018-06-02T10:45:20.961Z,1013.05
2018-06-02T10:46:20.959Z,1013.02
2018-06-02T10:47:20.941Z,1013.08
2018-06-02T10:48:20.934Z,1013.09
2018-06-02T10:49:20.920Z,1013.10
2018-06-02T10:50:20.926Z,1013.14
2018-06-02T10:51:20.919Z,1013.10
2018-06-02T10:52:20.891Z,1013.14
2018-06-02T10:53:20.882Z,1013.13
2018-06-02T10:54:20.871Z,1013.16
2018-06-02T10:55:20.862Z,1013.19
2018-06-02T10:56:20.870Z,1013.18
2018-06-02T10:57:20.843Z,1013.15
2018-06-02T10:58:20.837Z,1013.12
2018-06-02T10:59:20.840Z,1013.12
2018-06-02T11:00:20.813Z,1013.11
2018-06-02T11:01:20.803Z,1013.13
2018-06-02T11:02:20.793Z,1013.13
2018-06-02T11:03:20.785Z,1013.19
2018-06-02T11:04:20.795Z,1013.19
2018-06-02T11:05:20.765Z,1013.21
2018-06-02T11:06:20.762Z,1013.25
2018-06-02T11:07:20.747Z,1013.24
2018-06-02T11:08:20.743Z,1013.29
2018-06-02T11:09:20.730Z,1013.24
2018-06-02T11:10:20.741Z,1013.25
2018-06-02T11:11:20.709Z,1013.24
2018-06-02T11:12:20.709Z,1013.20
2018-06-02T11:13:20.696Z,1013.25
2018-06-02T11:14:20.680Z,1013.20
2018-06-02T11:15:20.672Z,1013.20
2018-06-02T11:16:20.662Z,1013.18
2018-06-02T11:17:20.653Z,1013.13
2018-06-02T11:18:20.643Z,1013.14
2018-06-02T11:19:20.636Z,1013.16
2018-06-02T11:20:20.625Z,1013.16
2018-06-02T11:21:20.625Z,1013.15
2018-06-02T11:22:20.609Z,1013.12
2018-06-02T11:23:20.599Z,1013.11
2018-06-02T11:24:20.589Z,1013.12
2018-06-02T11:25:20.582Z,1013.11
2018-06-02T11:26:20.569Z,1013.12
2018-06-02T11:27:20.559Z,1013.12
2018-06-02T11:28:20.561Z,1013.11
2018-06-02T11:29:20.541Z,1013.12
2018-06-02T11:30:20.541Z,1013.14
2018-06-02T11:31:20.529Z,1013.14
2018-06-02T11:32:20.514Z,1013.14
2018-06-02T11:33:20.502Z,1013.13
2018-06-02T11:34:20.492Z,1013.13
2018-06-02T11:35:20.482Z,1013.15
2018-06-02T11:36:20.473Z,1013.15
2018-06-02T11:37:20.463Z,1013.10
2018-06-02T11:38:20.451Z,1013.09
2018-06-02T11:39:20.447Z,1013.15
2018-06-02T11:40:20.435Z,1013.14
2018-06-02T11:42:20.419Z,1013.15
2018-06-02T11:43:20.411Z,1013.14
2018-06-02T11:44:20.428Z,1013.15
2018-06-02T11:45:20.381Z,1013.16
2018-06-02T11:46:20.371Z,1013.15
2018-06-02T11:47:20.360Z,1013.11
2018-06-02T11:48:20.349Z,1013.10
2018-06-02T11:49:20.340Z,1013.14
2018-06-02T11:50:20.329Z,1013.11
2018-06-02T11:51:20.318Z,1013.11
2018-06-02T11:52:20.311Z,1013.14
2018-06-02T11:53:20.302Z,1013.15
2018-06-02T11:54:20.287Z,1013.18
2018-06-02T11:55:20.277Z,1013.17
2018-06-02T11:56:20.276Z,1013.14
2018-06-02T11:57:20.271Z,1013.17
2018-06-02T11:58:20.251Z,1013.15
2018-06-02T11:59:20.239Z,1013.16
2018-06-02T12:00:20.234Z,1013.10
2018-06-02T12:01:20.217Z,1013.11
2018-06-02T12:02:20.214Z,1013.16
2018-06-02T12:03:20.195Z,1013.15
2018-06-02T12:04:20.193Z,1013.17
2018-06-02T12:05:20.176Z,1013.17
2018-06-02T12:06:20.175Z,1013.15
2018-06-02T12:07:20.164Z,1013.17
2018-06-02T12:08:20.145Z,1013.16
2018-06-02T12:09:20.188Z,1013.19
2018-06-02T12:10:20.138Z,1013.13
2018-06-02T12:11:20.134Z,1013.14
2018-06-02T12:12:20.107Z,1013.18
2018-06-02T12:13:20.098Z,1013.19
2018-06-02T12:14:20.088Z,1013.19
2018-06-02T12:15:20.080Z,1013.16
2018-06-02T12:16:20.069Z,1013.19
2018-06-02T12:17:20.064Z,1013.18
2018-06-02T12:18:20.054Z,1013.18
2018-06-02T12:19:20.042Z,1013.17
2018-06-02T12:20:20.040Z,1013.22
2018-06-02T12:21:20.021Z,1013.21
2018-06-02T12:22:20.019Z,1013.18